sensor_id;sensor_type;location;lat;lon;timestamp;pressure;altitude;pressure_sealevel;temperature
34807;BMP280;18310;55.586;12.286;2023-05-10T00:01:25;101480.16;;;15.88
34807;BMP280;18310;55.586;12.286;2023-05-10T00:04:29;101482.09;;;15.88
34807;BMP280;18310;55.586;12.286;2023-05-10T00:07:34;101477.41;;;15.88
34807;BMP280;18310;55.586;12.286;2023-05-10T00:10:37;101469.97;;;15.89
34807;BMP280;18310;55.586;12.286;2023-05-10T00:13:40;101463.22;;;15.86
34807;BMP280;18310;55.586;12.286;2023-05-10T00:16:43;101466.34;;;15.85
34807;BMP280;18310;55.586;12.286;2023-05-10T00:19:47;101453.78;;;15.84
34807;BMP280;18310;55.586;12.286;2023-05-10T00:22:52;101446.59;;;15.76
34807;BMP280;18310;55.586;12.286;2023-05-10T00:25:55;101463.97;;;15.83
34807;BMP280;18310;55.586;12.286;2023-05-10T00:28:58;101461.59;;;15.82
34807;BMP280;18310;55.586;12.286;2023-05-10T00:32:02;101463.53;;;15.81
34807;BMP280;18310;55.586;12.286;2023-05-10T00:35:06;101462.38;;;15.82
34807;BMP280;18310;55.586;12.286;2023-05-10T00:38:11;101457.25;;;15.81
34807;BMP280;18310;55.586;12.286;2023-05-10T00:41:14;101445.13;;;15.82
34807;BMP280;18310;55.586;12.286;2023-05-10T00:44:17;101447.84;;;15.82
34807;BMP280;18310;55.586;12.286;2023-05-10T00:47:21;101439.63;;;15.82
34807;BMP280;18310;55.586;12.286;2023-05-10T00:50:24;101444.75;;;15.83
34807;BMP280;18310;55.586;12.286;2023-05-10T00:53:31;101433.78;;;15.83
34807;BMP280;18310;55.586;12.286;2023-05-10T00:56:34;101431.38;;;15.82
34807;BMP280;18310;55.586;12.286;2023-05-10T00:59:37;101436.03;;;15.78
34807;BMP280;18310;55.586;12.286;2023-05-10T01:02:40;101441.56;;;15.81
34807;BMP280;18310;55.586;12.286;2023-05-10T01:05:44;101439.97;;;15.80
34807;BMP280;18310;55.586;12.286;2023-05-10T01:08:49;101432.91;;;15.79
34807;BMP280;18310;55.586;12.286;2023-05-10T01:11:53;101428.53;;;15.75
34807;BMP280;18310;55.586;12.286;2023-05-10T01:14:57;101432.53;;;15.81
34807;BMP280;18310;55.586;12.286;2023-05-10T01:18:01;101429.34;;;15.79
34807;BMP280;18310;55.586;12.286;2023-05-10T01:21:14;101436.81;;;15.78
34807;BMP280;18310;55.586;12.286;2023-05-10T01:28:33;101430.44;;;15.71
34807;BMP280;18310;55.586;12.286;2023-05-10T01:32:00;101418.28;;;15.72
34807;BMP280;18310;55.586;12.286;2023-05-10T01:35:17;101421.03;;;15.72
34807;BMP280;18310;55.586;12.286;2023-05-10T01:38:28;101417.50;;;15.71
34807;BMP280;18310;55.586;12.286;2023-05-10T01:41:41;101428.03;;;15.69
34807;BMP280;18310;55.586;12.286;2023-05-10T01:44:49;101412.22;;;15.59
34807;BMP280;18310;55.586;12.286;2023-05-10T01:48:03;101413.84;;;15.64
34807;BMP280;18310;55.586;12.286;2023-05-10T01:51:09;101409.16;;;15.64
34807;BMP280;18310;55.586;12.286;2023-05-10T01:54:15;101401.28;;;15.63
34807;BMP280;18310;55.586;12.286;2023-05-10T01:57:22;101410.69;;;15.62
34807;BMP280;18310;55.586;12.286;2023-05-10T02:00:28;101411.84;;;15.61
34807;BMP280;18310;55.586;12.286;2023-05-10T02:03:34;101422.81;;;15.61
34807;BMP280;18310;55.586;12.286;2023-05-10T02:06:40;101406.72;;;15.59
34807;BMP280;18310;55.586;12.286;2023-05-10T02:09:44;101405.13;;;15.58
34807;BMP280;18310;55.586;12.286;2023-05-10T02:12:50;101396.47;;;15.56
34807;BMP280;18310;55.586;12.286;2023-05-10T02:15:53;101410.03;;;15.46
34807;BMP280;18310;55.586;12.286;2023-05-10T02:18:59;101408.94;;;15.50
34807;BMP280;18310;55.586;12.286;2023-05-10T02:22:05;101404.97;;;15.48
34807;BMP280;18310;55.586;12.286;2023-05-10T02:25:11;101414.00;;;15.48
34807;BMP280;18310;55.586;12.286;2023-05-10T02:28:16;101402.22;;;15.48
34807;BMP280;18310;55.586;12.286;2023-05-10T02:31:21;101381.69;;;15.38
34807;BMP280;18310;55.586;12.286;2023-05-10T02:34:27;101390.84;;;15.46
34807;BMP280;18310;55.586;12.286;2023-05-10T02:37:31;101388.78;;;15.39
34807;BMP280;18310;55.586;12.286;2023-05-10T02:40:35;101389.63;;;15.43
34807;BMP280;18310;55.586;12.286;2023-05-10T02:43:40;101376.16;;;15.34
34807;BMP280;18310;55.586;12.286;2023-05-10T02:46:43;101393.88;;;15.40
34807;BMP280;18310;55.586;12.286;2023-05-10T02:49:48;101394.31;;;15.42
34807;BMP280;18310;55.586;12.286;2023-05-10T02:52:54;101379.00;;;15.41
34807;BMP280;18310;55.586;12.286;2023-05-10T02:56:00;101380.53;;;15.39
34807;BMP280;18310;55.586;12.286;2023-05-10T02:59:05;101382.91;;;15.40
34807;BMP280;18310;55.586;12.286;2023-05-10T03:02:09;101390.72;;;15.38
34807;BMP280;18310;55.586;12.286;2023-05-10T03:05:13;101407.59;;;15.40
34807;BMP280;18310;55.586;12.286;2023-05-10T03:08:16;101375.06;;;15.39
34807;BMP280;18310;55.586;12.286;2023-05-10T03:11:31;101375.72;;;15.32
34807;BMP280;18310;55.586;12.286;2023-05-10T03:14:45;101378.16;;;15.37
34807;BMP280;18310;55.586;12.286;2023-05-10T03:17:54;101386.38;;;15.37
34807;BMP280;18310;55.586;12.286;2023-05-10T03:21:02;101385.94;;;15.35
34807;BMP280;18310;55.586;12.286;2023-05-10T03:24:08;101385.16;;;15.35
34807;BMP280;18310;55.586;12.286;2023-05-10T03:27:14;101375.34;;;15.34
34807;BMP280;18310;55.586;12.286;2023-05-10T03:30:18;101377.34;;;15.37
34807;BMP280;18310;55.586;12.286;2023-05-10T03:33:22;101374.63;;;15.37
34807;BMP280;18310;55.586;12.286;2023-05-10T03:36:27;101368.66;;;15.31
34807;BMP280;18310;55.586;12.286;2023-05-10T03:39:54;101382.91;;;15.40
34807;BMP280;18310;55.586;12.286;2023-05-10T03:42:57;101387.97;;;15.38
34807;BMP280;18310;55.586;12.286;2023-05-10T03:46:01;101382.91;;;15.40
34807;BMP280;18310;55.586;12.286;2023-05-10T03:49:05;101382.16;;;15.43
34807;BMP280;18310;55.586;12.286;2023-05-10T03:52:08;101379.06;;;15.45
34807;BMP280;18310;55.586;12.286;2023-05-10T03:55:12;101375.53;;;15.44
34807;BMP280;18310;55.586;12.286;2023-05-10T03:58:16;101376.38;;;15.49
34807;BMP280;18310;55.586;12.286;2023-05-10T04:01:19;101376.03;;;15.50
34807;BMP280;18310;55.586;12.286;2023-05-10T04:04:23;101381.13;;;15.52
34807;BMP280;18310;55.586;12.286;2023-05-10T04:07:26;101371.41;;;15.58
34807;BMP280;18310;55.586;12.286;2023-05-10T04:10:30;101366.78;;;15.62
34807;BMP280;18310;55.586;12.286;2023-05-10T04:13:34;101378.19;;;15.64
34807;BMP280;18310;55.586;12.286;2023-05-10T04:16:37;101373.50;;;15.68
34807;BMP280;18310;55.586;12.286;2023-05-10T04:19:40;101372.00;;;15.70
34807;BMP280;18310;55.586;12.286;2023-05-10T04:22:43;101381.50;;;15.76
34807;BMP280;18310;55.586;12.286;2023-05-10T04:25:48;101364.28;;;15.79
34807;BMP280;18310;55.586;12.286;2023-05-10T04:28:51;101365.56;;;15.85
34807;BMP280;18310;55.586;12.286;2023-05-10T04:31:54;101355.00;;;15.87
34807;BMP280;18310;55.586;12.286;2023-05-10T04:34:58;101373.00;;;16.15
34807;BMP280;18310;55.586;12.286;2023-05-10T04:38:01;101369.28;;;16.30
34807;BMP280;18310;55.586;12.286;2023-05-10T04:41:07;101371.47;;;16.51
34807;BMP280;18310;55.586;12.286;2023-05-10T04:44:10;101385.06;;;16.73
34807;BMP280;18310;55.586;12.286;2023-05-10T04:47:13;101363.72;;;17.00
34807;BMP280;18310;55.586;12.286;2023-05-10T04:50:17;101362.28;;;17.17
34807;BMP280;18310;55.586;12.286;2023-05-10T04:53:20;101369.56;;;17.42
34807;BMP280;18310;55.586;12.286;2023-05-10T04:56:25;101370.09;;;17.66
34807;BMP280;18310;55.586;12.286;2023-05-10T04:59:28;101380.03;;;17.84
34807;BMP280;18310;55.586;12.286;2023-05-10T05:02:32;101388.00;;;18.04
34807;BMP280;18310;55.586;12.286;2023-05-10T05:05:35;101370.75;;;18.21
34807;BMP280;18310;55.586;12.286;2023-05-10T05:08:38;101372.00;;;18.41
34807;BMP280;18310;55.586;12.286;2023-05-10T05:11:43;101375.97;;;18.61
34807;BMP280;18310;55.586;12.286;2023-05-10T05:14:46;101380.34;;;18.76
34807;BMP280;18310;55.586;12.286;2023-05-10T05:17:50;101375.22;;;18.92
34807;BMP280;18310;55.586;12.286;2023-05-10T05:20:53;101373.25;;;19.07
34807;BMP280;18310;55.586;12.286;2023-05-10T05:23:56;101375.22;;;19.17
34807;BMP280;18310;55.586;12.286;2023-05-10T05:27:00;101374.00;;;19.29
34807;BMP280;18310;55.586;12.286;2023-05-10T05:30:05;101373.59;;;19.44
34807;BMP280;18310;55.586;12.286;2023-05-10T05:33:10;101377.53;;;19.50
34807;BMP280;18310;55.586;12.286;2023-05-10T05:36:13;101383.03;;;19.54
34807;BMP280;18310;55.586;12.286;2023-05-10T05:39:16;101383.44;;;19.56
34807;BMP280;18310;55.586;12.286;2023-05-10T05:42:21;101384.19;;;19.64
34807;BMP280;18310;55.586;12.286;2023-05-10T05:45:24;101380.56;;;19.81
34807;BMP280;18310;55.586;12.286;2023-05-10T05:48:29;101382.50;;;19.98
34807;BMP280;18310;55.586;12.286;2023-05-10T05:51:32;101389.94;;;20.12
34807;BMP280;18310;55.586;12.286;2023-05-10T05:54:36;101386.31;;;20.22
34807;BMP280;18310;55.586;12.286;2023-05-10T05:57:41;101396.94;;;20.30
34807;BMP280;18310;55.586;12.286;2023-05-10T06:00:44;101394.13;;;20.37
34807;BMP280;18310;55.586;12.286;2023-05-10T06:03:47;101391.72;;;20.39
34807;BMP280;18310;55.586;12.286;2023-05-10T06:06:53;101397.19;;;20.53
34807;BMP280;18310;55.586;12.286;2023-05-10T06:09:56;101389.28;;;20.59
34807;BMP280;18310;55.586;12.286;2023-05-10T06:13:01;101386.47;;;20.63
34807;BMP280;18310;55.586;12.286;2023-05-10T06:16:05;101398.69;;;20.65
34807;BMP280;18310;55.586;12.286;2023-05-10T06:19:08;101398.69;;;20.65
34807;BMP280;18310;55.586;12.286;2023-05-10T06:22:11;101390.78;;;20.67
34807;BMP280;18310;55.586;12.286;2023-05-10T06:25:15;101391.88;;;20.77
34807;BMP280;18310;55.586;12.286;2023-05-10T06:28:21;101400.91;;;20.88
34807;BMP280;18310;55.586;12.286;2023-05-10T06:31:24;101392.16;;;20.93
34807;BMP280;18310;55.586;12.286;2023-05-10T06:34:27;101403.16;;;21.00
34807;BMP280;18310;55.586;12.286;2023-05-10T06:37:30;101400.38;;;21.03
34807;BMP280;18310;55.586;12.286;2023-05-10T06:40:33;101396.38;;;21.08
34807;BMP280;18310;55.586;12.286;2023-05-10T06:43:39;101399.91;;;21.12
34807;BMP280;18310;55.586;12.286;2023-05-10T06:46:43;101391.94;;;21.17
34807;BMP280;18310;55.586;12.286;2023-05-10T06:49:46;101408.41;;;21.32
34807;BMP280;18310;55.586;12.286;2023-05-10T06:52:49;101400.06;;;21.35
34807;BMP280;18310;55.586;12.286;2023-05-10T06:55:54;101403.50;;;21.46
34807;BMP280;18310;55.586;12.286;2023-05-10T06:58:59;101397.59;;;21.44
34807;BMP280;18310;55.586;12.286;2023-05-10T07:02:02;101391.53;;;21.56
34807;BMP280;18310;55.586;12.286;2023-05-10T07:05:06;101405.91;;;21.78
34807;BMP280;18310;55.586;12.286;2023-05-10T07:08:09;101404.56;;;21.90
34807;BMP280;18310;55.586;12.286;2023-05-10T07:11:12;101395.03;;;21.94
34807;BMP280;18310;55.586;12.286;2023-05-10T07:14:16;101410.22;;;21.83
34807;BMP280;18310;55.586;12.286;2023-05-10T07:17:20;101407.16;;;21.73
34807;BMP280;18310;55.586;12.286;2023-05-10T07:20:23;101405.97;;;21.75
34807;BMP280;18310;55.586;12.286;2023-05-10T07:23:26;101409.94;;;21.73
34807;BMP280;18310;55.586;12.286;2023-05-10T07:26:29;101407.94;;;21.40
34807;BMP280;18310;55.586;12.286;2023-05-10T07:29:34;101401.28;;;20.90
34807;BMP280;18310;55.586;12.286;2023-05-10T07:32:37;101402.38;;;20.48
34807;BMP280;18310;55.586;12.286;2023-05-10T07:35:41;101398.25;;;20.08
34807;BMP280;18310;55.586;12.286;2023-05-10T07:38:44;101400.69;;;19.85
34807;BMP280;18310;55.586;12.286;2023-05-10T07:41:47;101420.91;;;19.61
34807;BMP280;18310;55.586;12.286;2023-05-10T07:44:52;101399.25;;;19.41
34807;BMP280;18310;55.586;12.286;2023-05-10T07:47:55;101403.97;;;19.23
34807;BMP280;18310;55.586;12.286;2023-05-10T07:50:58;101408.72;;;19.12
34807;BMP280;18310;55.586;12.286;2023-05-10T07:54:02;101407.91;;;19.01
34807;BMP280;18310;55.586;12.286;2023-05-10T07:57:05;101399.25;;;18.92
34807;BMP280;18310;55.586;12.286;2023-05-10T08:00:17;101406.34;;;18.86
34807;BMP280;18310;55.586;12.286;2023-05-10T08:03:20;101413.44;;;18.80
34807;BMP280;18310;55.586;12.286;2023-05-10T08:06:24;101412.63;;;18.62
34807;BMP280;18310;55.586;12.286;2023-05-10T08:09:29;101388.16;;;18.57
34807;BMP280;18310;55.586;12.286;2023-05-10T08:12:32;101415.38;;;18.58
34807;BMP280;18310;55.586;12.286;2023-05-10T08:15:36;101420.47;;;18.60
34807;BMP280;18310;55.586;12.286;2023-05-10T08:18:40;101431.13;;;18.61
34807;BMP280;18310;55.586;12.286;2023-05-10T08:21:43;101418.88;;;18.59
34807;BMP280;18310;55.586;12.286;2023-05-10T08:24:46;101416.53;;;18.57
34807;BMP280;18310;55.586;12.286;2023-05-10T08:27:49;101414.94;;;18.56
34807;BMP280;18310;55.586;12.286;2023-05-10T08:30:54;101416.53;;;18.61
34807;BMP280;18310;55.586;12.286;2023-05-10T08:33:58;101416.59;;;18.75
34807;BMP280;18310;55.586;12.286;2023-05-10T08:37:01;101402.03;;;18.85
34807;BMP280;18310;55.586;12.286;2023-05-10T08:40:06;101418.94;;;18.80
34807;BMP280;18310;55.586;12.286;2023-05-10T08:43:11;101432.75;;;18.76
34807;BMP280;18310;55.586;12.286;2023-05-10T08:46:18;101420.50;;;18.74
34807;BMP280;18310;55.586;12.286;2023-05-10T08:49:21;101412.25;;;18.74
34807;BMP280;18310;55.586;12.286;2023-05-10T08:52:28;101410.66;;;18.69
34807;BMP280;18310;55.586;12.286;2023-05-10T08:55:32;101414.19;;;18.70
34807;BMP280;18310;55.586;12.286;2023-05-10T08:58:36;101413.41;;;18.73
34807;BMP280;18310;55.586;12.286;2023-05-10T09:01:42;101415.78;;;18.71
34807;BMP280;18310;55.586;12.286;2023-05-10T09:04:46;101418.53;;;18.71
34807;BMP280;18310;55.586;12.286;2023-05-10T09:07:51;101407.09;;;18.69
34807;BMP280;18310;55.586;12.286;2023-05-10T09:10:55;101426.81;;;18.71
34807;BMP280;18310;55.586;12.286;2023-05-10T09:13:58;101403.19;;;18.63
34807;BMP280;18310;55.586;12.286;2023-05-10T09:17:03;101425.66;;;18.75
34807;BMP280;18310;55.586;12.286;2023-05-10T09:20:07;101428.03;;;18.84
34807;BMP280;18310;55.586;12.286;2023-05-10T09:23:11;101427.63;;;18.89
34807;BMP280;18310;55.586;12.286;2023-05-10T09:26:14;101428.00;;;18.91
34807;BMP280;18310;55.586;12.286;2023-05-10T09:29:17;101433.91;;;18.86
34807;BMP280;18310;55.586;12.286;2023-05-10T09:32:35;101429.19;;;18.83
34807;BMP280;18310;55.586;12.286;2023-05-10T09:35:39;101420.13;;;18.79
34807;BMP280;18310;55.586;12.286;2023-05-10T09:38:45;101423.25;;;18.77
34807;BMP280;18310;55.586;12.286;2023-05-10T09:41:50;101425.66;;;18.75
34807;BMP280;18310;55.586;12.286;2023-05-10T09:45:00;101425.22;;;18.77
34807;BMP280;18310;55.586;12.286;2023-05-10T09:48:05;101414.63;;;18.72
34807;BMP280;18310;55.586;12.286;2023-05-10T09:51:08;101409.84;;;18.65
34807;BMP280;18310;55.586;12.286;2023-05-10T09:54:13;101420.50;;;18.74
34807;BMP280;18310;55.586;12.286;2023-05-10T09:57:19;101428.41;;;18.75
34807;BMP280;18310;55.586;12.286;2023-05-10T10:00:23;101436.28;;;18.80
34807;BMP280;18310;55.586;12.286;2023-05-10T10:03:28;101461.13;;;18.84
34807;BMP280;18310;55.586;12.286;2023-05-10T10:06:35;101450.06;;;18.91
34807;BMP280;18310;55.586;12.286;2023-05-10T10:09:39;101452.06;;;19.01
34807;BMP280;18310;55.586;12.286;2023-05-10T10:12:43;101423.31;;;18.98
34807;BMP280;18310;55.586;12.286;2023-05-10T10:15:47;101438.69;;;19.10
34807;BMP280;18310;55.586;12.286;2023-05-10T10:18:54;101439.88;;;19.06
34807;BMP280;18310;55.586;12.286;2023-05-10T10:21:58;101425.69;;;19.07
34807;BMP280;18310;55.586;12.286;2023-05-10T10:25:02;101439.06;;;19.09
34807;BMP280;18310;55.586;12.286;2023-05-10T10:28:16;101444.22;;;19.10
34807;BMP280;18310;55.586;12.286;2023-05-10T10:31:27;101424.47;;;19.01
34807;BMP280;18310;55.586;12.286;2023-05-10T10:34:38;101435.50;;;19.05
34807;BMP280;18310;55.586;12.286;2023-05-10T10:37:46;101438.69;;;19.03
34807;BMP280;18310;55.586;12.286;2023-05-10T10:41:02;101430.00;;;19.05
34807;BMP280;18310;55.586;12.286;2023-05-10T10:44:24;101437.91;;;19.06
34807;BMP280;18310;55.586;12.286;2023-05-10T10:47:29;101452.84;;;19.02
34807;BMP280;18310;55.586;12.286;2023-05-10T10:50:44;101444.59;;;18.98
34807;BMP280;18310;55.586;12.286;2023-05-10T10:53:48;101443.00;;;18.93
34807;BMP280;18310;55.586;12.286;2023-05-10T10:57:10;101428.00;;;18.91
34807;BMP280;18310;55.586;12.286;2023-05-10T11:00:22;101420.16;;;18.93
34807;BMP280;18310;55.586;12.286;2023-05-10T11:03:26;101422.53;;;18.98
34807;BMP280;18310;55.586;12.286;2023-05-10T11:06:33;101409.50;;;19.02
34807;BMP280;18310;55.586;12.286;2023-05-10T11:09:39;101404.00;;;18.98
34807;BMP280;18310;55.586;12.286;2023-05-10T11:12:51;101420.16;;;19.07
34807;BMP280;18310;55.586;12.286;2023-05-10T11:15:55;101424.06;;;19.13
34807;BMP280;18310;55.586;12.286;2023-05-10T11:19:01;101423.31;;;19.20
34807;BMP280;18310;55.586;12.286;2023-05-10T11:22:13;101401.25;;;19.20
34807;BMP280;18310;55.586;12.286;2023-05-10T11:25:17;101413.06;;;19.17
34807;BMP280;18310;55.586;12.286;2023-05-10T11:28:21;101413.88;;;19.17
34807;BMP280;18310;55.586;12.286;2023-05-10T11:31:24;101420.53;;;19.13
34807;BMP280;18310;55.586;12.286;2023-05-10T11:34:30;101417.00;;;19.12
34807;BMP280;18310;55.586;12.286;2023-05-10T11:37:37;101415.03;;;19.16
34807;BMP280;18310;55.586;12.286;2023-05-10T11:40:43;101413.88;;;19.17
34807;BMP280;18310;55.586;12.286;2023-05-10T11:43:47;101414.66;;;19.21
34807;BMP280;18310;55.586;12.286;2023-05-10T11:46:51;101424.09;;;19.24
34807;BMP280;18310;55.586;12.286;2023-05-10T11:49:55;101416.97;;;19.23
34807;BMP280;18310;55.586;12.286;2023-05-10T11:52:59;101417.38;;;19.28
34807;BMP280;18310;55.586;12.286;2023-05-10T11:56:03;101417.38;;;19.32
34807;BMP280;18310;55.586;12.286;2023-05-10T11:59:06;101398.84;;;19.25
34807;BMP280;18310;55.586;12.286;2023-05-10T12:02:11;101408.72;;;19.33
34807;BMP280;18310;55.586;12.286;2023-05-10T12:05:14;101409.50;;;19.37
34807;BMP280;18310;55.586;12.286;2023-05-10T12:08:22;101392.16;;;19.30
34807;BMP280;18310;55.586;12.286;2023-05-10T12:11:26;101395.69;;;19.41
34807;BMP280;18310;55.586;12.286;2023-05-10T12:14:33;101396.84;;;19.50
34807;BMP280;18310;55.586;12.286;2023-05-10T12:17:37;101397.63;;;19.55
34807;BMP280;18310;55.586;12.286;2023-05-10T12:20:44;101401.16;;;19.59
34807;BMP280;18310;55.586;12.286;2023-05-10T12:23:50;101402.72;;;19.67
34807;BMP280;18310;55.586;12.286;2023-05-10T12:26:53;101392.44;;;19.71
34807;BMP280;18310;55.586;12.286;2023-05-10T12:29:59;101392.47;;;19.74
34807;BMP280;18310;55.586;12.286;2023-05-10T12:33:06;101393.59;;;19.84
34807;BMP280;18310;55.586;12.286;2023-05-10T12:36:11;101399.50;;;19.89
34807;BMP280;18310;55.586;12.286;2023-05-10T12:39:16;101400.69;;;19.88
34807;BMP280;18310;55.586;12.286;2023-05-10T12:42:19;101409.69;;;20.03
34807;BMP280;18310;55.586;12.286;2023-05-10T12:45:23;101396.66;;;20.07
34807;BMP280;18310;55.586;12.286;2023-05-10T12:48:26;101408.47;;;20.15
34807;BMP280;18310;55.586;12.286;2023-05-10T12:51:30;101408.44;;;20.22
34807;BMP280;18310;55.586;12.286;2023-05-10T12:54:34;101413.50;;;20.30
34807;BMP280;18310;55.586;12.286;2023-05-10T12:57:38;101399.72;;;20.34
34807;BMP280;18310;55.586;12.286;2023-05-10T13:00:41;101413.13;;;20.35
34807;BMP280;18310;55.586;12.286;2023-05-10T13:03:45;101412.28;;;20.38
34807;BMP280;18310;55.586;12.286;2023-05-10T13:06:48;101402.78;;;20.43
34807;BMP280;18310;55.586;12.286;2023-05-10T13:09:53;101411.94;;;20.36
34807;BMP280;18310;55.586;12.286;2023-05-10T13:12:56;101409.16;;;20.36
34807;BMP280;18310;55.586;12.286;2023-05-10T13:16:00;101397.78;;;20.24
34807;BMP280;18310;55.586;12.286;2023-05-10T13:19:03;101392.59;;;20.33
34807;BMP280;18310;55.586;12.286;2023-05-10T13:22:06;101397.66;;;20.41
34807;BMP280;18310;55.586;12.286;2023-05-10T13:25:11;101398.44;;;20.45
34807;BMP280;18310;55.586;12.286;2023-05-10T13:28:14;101397.66;;;20.45
34807;BMP280;18310;55.586;12.286;2023-05-10T13:31:17;101394.06;;;20.48
34807;BMP280;18310;55.586;12.286;2023-05-10T13:34:20;101385.34;;;20.49
34807;BMP280;18310;55.586;12.286;2023-05-10T13:37:23;101390.47;;;20.54
34807;BMP280;18310;55.586;12.286;2023-05-10T13:40:28;101372.69;;;20.59
34807;BMP280;18310;55.586;12.286;2023-05-10T13:43:31;101386.47;;;20.63
34807;BMP280;18310;55.586;12.286;2023-05-10T13:46:34;101381.28;;;20.72
34807;BMP280;18310;55.586;12.286;2023-05-10T13:49:37;101375.28;;;20.77
34807;BMP280;18310;55.586;12.286;2023-05-10T13:52:41;101380.03;;;20.80
34807;BMP280;18310;55.586;12.286;2023-05-10T13:55:45;101372.47;;;20.84
34807;BMP280;18310;55.586;12.286;2023-05-10T13:58:49;101374.78;;;20.89
34807;BMP280;18310;55.586;12.286;2023-05-10T14:01:52;101375.91;;;20.95
34807;BMP280;18310;55.586;12.286;2023-05-10T14:04:55;101381.44;;;20.98
34807;BMP280;18310;55.586;12.286;2023-05-10T14:07:59;101380.25;;;20.99
34807;BMP280;18310;55.586;12.286;2023-05-10T14:11:04;101381.00;;;21.03
34807;BMP280;18310;55.586;12.286;2023-05-10T14:14:08;101374.28;;;21.04
34807;BMP280;18310;55.586;12.286;2023-05-10T14:17:11;101369.94;;;21.03
34807;BMP280;18310;55.586;12.286;2023-05-10T14:20:14;101375.03;;;21.05
34807;BMP280;18310;55.586;12.286;2023-05-10T14:23:17;101372.25;;;21.08
34807;BMP280;18310;55.586;12.286;2023-05-10T14:26:23;101381.31;;;21.09
34807;BMP280;18310;55.586;12.286;2023-05-10T14:29:26;101380.13;;;21.10
34807;BMP280;18310;55.586;12.286;2023-05-10T14:32:30;101372.63;;;21.07
34807;BMP280;18310;55.586;12.286;2023-05-10T14:35:33;101373.00;;;21.09
34807;BMP280;18310;55.586;12.286;2023-05-10T14:38:37;101377.00;;;21.08
34807;BMP280;18310;55.586;12.286;2023-05-10T14:41:41;101365.56;;;21.06
34807;BMP280;18310;55.586;12.286;2023-05-10T14:44:46;101361.19;;;21.05
34807;BMP280;18310;55.586;12.286;2023-05-10T14:47:49;101373.44;;;21.07
34807;BMP280;18310;55.586;12.286;2023-05-10T14:50:53;101364.78;;;21.02
34807;BMP280;18310;55.586;12.286;2023-05-10T14:53:56;101364.00;;;21.01
34807;BMP280;18310;55.586;12.286;2023-05-10T14:57:00;101364.41;;;21.00
34807;BMP280;18310;55.586;12.286;2023-05-10T15:00:05;101367.97;;;20.97
34807;BMP280;18310;55.586;12.286;2023-05-10T15:03:09;101362.84;;;20.99
34807;BMP280;18310;55.586;12.286;2023-05-10T15:06:13;101357.31;;;20.95
34807;BMP280;18310;55.586;12.286;2023-05-10T15:09:17;101357.38;;;20.92
34807;BMP280;18310;55.586;12.286;2023-05-10T15:12:21;101362.53;;;20.90
34807;BMP280;18310;55.586;12.286;2023-05-10T15:15:24;101370.47;;;20.88
34807;BMP280;18310;55.586;12.286;2023-05-10T15:18:27;101362.16;;;20.84
34807;BMP280;18310;55.586;12.286;2023-05-10T15:21:30;101373.69;;;20.83
34807;BMP280;18310;55.586;12.286;2023-05-10T15:24:40;101364.19;;;20.80
34807;BMP280;18310;55.586;12.286;2023-05-10T15:27:44;101366.94;;;20.80
34807;BMP280;18310;55.586;12.286;2023-05-10T15:30:47;101365.78;;;20.78
34807;BMP280;18310;55.586;12.286;2023-05-10T15:33:51;101359.97;;;20.65
34807;BMP280;18310;55.586;12.286;2023-05-10T15:36:55;101371.81;;;20.66
34807;BMP280;18310;55.586;12.286;2023-05-10T15:39:58;101367.47;;;20.65
34807;BMP280;18310;55.586;12.286;2023-05-10T15:43:07;101369.06;;;20.62
34807;BMP280;18310;55.586;12.286;2023-05-10T15:46:10;101365.56;;;20.58
34807;BMP280;18310;55.586;12.286;2023-05-10T15:49:13;101369.53;;;20.53
34807;BMP280;18310;55.586;12.286;2023-05-10T15:52:16;101362.03;;;20.54
34807;BMP280;18310;55.586;12.286;2023-05-10T15:57:03;101363.66;;;20.48
34807;BMP280;18310;55.586;12.286;2023-05-10T16:00:07;101359.28;;;20.50
34807;BMP280;18310;55.586;12.286;2023-05-10T16:03:10;101369.59;;;20.46
34807;BMP280;18310;55.586;12.286;2023-05-10T16:06:14;101371.19;;;20.44
34807;BMP280;18310;55.586;12.286;2023-05-10T16:09:18;101368.03;;;20.42
34807;BMP280;18310;55.586;12.286;2023-05-10T16:12:22;101356.97;;;20.42
34807;BMP280;18310;55.586;12.286;2023-05-10T16:15:25;101356.97;;;20.38
34807;BMP280;18310;55.586;12.286;2023-05-10T16:18:28;101362.50;;;20.38
34807;BMP280;18310;55.586;12.286;2023-05-10T16:21:32;101364.09;;;20.39
34807;BMP280;18310;55.586;12.286;2023-05-10T16:24:36;101367.69;;;20.36
34807;BMP280;18310;55.586;12.286;2023-05-10T16:27:40;101357.81;;;20.35
34807;BMP280;18310;55.586;12.286;2023-05-10T16:30:43;101361.00;;;20.34
34807;BMP280;18310;55.586;12.286;2023-05-10T16:33:48;101366.53;;;20.34
34807;BMP280;18310;55.586;12.286;2023-05-10T16:36:51;101366.50;;;20.30
34807;BMP280;18310;55.586;12.286;2023-05-10T16:40:18;101359.44;;;20.29
34807;BMP280;18310;55.586;12.286;2023-05-10T16:43:21;101363.44;;;20.21
34807;BMP280;18310;55.586;12.286;2023-05-10T16:46:27;101367.72;;;20.29
34807;BMP280;18310;55.586;12.286;2023-05-10T16:49:30;101365.34;;;20.28
34807;BMP280;18310;55.586;12.286;2023-05-10T16:52:34;101364.97;;;20.29
34807;BMP280;18310;55.586;12.286;2023-05-10T16:55:39;101366.13;;;20.28
34807;BMP280;18310;55.586;12.286;2023-05-10T16:58:43;101367.31;;;20.27
34807;BMP280;18310;55.586;12.286;2023-05-10T17:01:46;101379.56;;;20.26
34807;BMP280;18310;55.586;12.286;2023-05-10T17:04:49;101371.72;;;20.18
34807;BMP280;18310;55.586;12.286;2023-05-10T17:07:53;101377.25;;;20.18
34807;BMP280;18310;55.586;12.286;2023-05-10T17:11:01;101363.47;;;20.14
34807;BMP280;18310;55.586;12.286;2023-05-10T17:14:05;101380.84;;;20.11
34807;BMP280;18310;55.586;12.286;2023-05-10T17:17:08;101377.31;;;20.07
34807;BMP280;18310;55.586;12.286;2023-05-10T17:20:12;101380.88;;;20.04